Time;durP1;ratioP1;P1;durP2;ratioP2;P2;SDS_P1;SDS_P2;PMS_P1;PMS_P2;Temp;Humidity;BMP_temperature;BMP_pressure;BME280_temperature;BME280_humidity;BME280_pressure;Samples;Min_cycle;Max_cycle;Signal;HPM_P1;HPM_P2
2021/12/22 00:01:52;;;;;;;12.90;4.28;;;;;;;-19.19;59.06;98461.09;5155704;27;20327;-55
2021/12/22 00:04:24;;;;;;;12.52;5.32;;;;;;;-19.14;59.72;98464.22;5155363;27;20046;-55
2021/12/22 00:06:51;;;;;;;17.17;7.78;;;;;;;-19.05;59.27;98466.31;5152680;27;20073;-57
2021/12/22 00:09:17;;;;;;;9.63;6.28;;;;;;;-19.14;58.78;98471.00;5155082;27;20126;-54
2021/12/22 00:11:43;;;;;;;10.05;4.75;;;;;;;-19.24;58.65;98465.56;5155262;27;20122;-56
2021/12/22 00:14:10;;;;;;;4.55;2.55;;;;;;;-19.27;58.87;98469.03;5154557;27;20428;-54
2021/12/22 00:16:36;;;;;;;4.53;2.88;;;;;;;-19.40;58.88;98479.81;5155263;27;20046;-56
2021/12/22 00:19:03;;;;;;;4.82;3.25;;;;;;;-19.60;59.26;98475.69;5155376;27;20046;-57
2021/12/22 00:21:29;;;;;;;9.70;3.08;;;;;;;-19.62;59.30;98478.28;5153915;27;20077;-57
2021/12/22 00:23:55;;;;;;;4.57;2.60;;;;;;;-19.60;59.79;98489.13;5153292;27;20323;-57
2021/12/22 00:26:21;;;;;;;7.10;2.75;;;;;;;-19.66;59.33;98486.91;5154302;27;20200;-54
2021/12/22 00:28:47;;;;;;;14.00;5.97;;;;;;;-19.60;59.94;98478.22;5153534;27;20078;-55
2021/12/22 00:31:14;;;;;;;5.65;2.33;;;;;;;-19.64;60.17;98480.06;5154471;27;20125;-56
2021/12/22 00:33:49;;;;;;;6.80;3.00;;;;;;;-19.66;60.45;98483.59;5154462;27;20035;-55
2021/12/22 00:36:22;;;;;;;10.85;3.40;;;;;;;-19.71;60.57;98482.06;5155057;27;20043;-56
2021/12/22 00:38:50;;;;;;;8.55;4.03;;;;;;;-19.74;60.33;98468.78;5154715;27;20043;-54
2021/12/22 00:41:16;;;;;;;5.43;3.13;;;;;;;-19.65;60.34;98470.88;5154616;27;20046;-55
2021/12/22 00:43:41;;;;;;;7.00;2.35;;;;;;;-19.49;60.34;98476.81;5154218;27;20074;-55
2021/12/22 00:46:08;;;;;;;7.50;3.03;;;;;;;-19.31;60.27;98480.19;5154307;27;20074;-53
2021/12/22 00:48:34;;;;;;;4.20;2.83;;;;;;;-19.15;60.02;98487.03;5154767;27;20039;-56
2021/12/22 00:51:00;;;;;;;5.28;2.60;;;;;;;-19.06;60.31;98484.84;5154375;27;20493;-55
2021/12/22 00:53:27;;;;;;;5.63;3.15;;;;;;;-18.87;59.91;98491.56;5154177;27;20034;-56
2021/12/22 00:55:52;;;;;;;3.88;2.08;;;;;;;-18.80;59.90;98486.09;5152457;27;20094;-56
2021/12/22 00:58:20;;;;;;;3.60;2.47;;;;;;;-18.62;59.64;98491.13;5154135;27;20059;-56
2021/12/22 01:00:47;;;;;;;6.03;2.95;;;;;;;-18.52;58.46;98487.25;5135589;27;20445;-54
2021/12/22 01:03:14;;;;;;;5.07;2.50;;;;;;;-18.41;59.32;98484.16;5154012;27;20042;-55
2021/12/22 01:05:40;;;;;;;2.63;2.40;;;;;;;-18.39;57.69;98483.19;5154125;27;20154;-56
2021/12/22 01:08:06;;;;;;;4.82;3.05;;;;;;;-18.35;58.35;98487.19;5154667;27;20053;-56
2021/12/22 01:10:32;;;;;;;3.47;2.35;;;;;;;-18.37;58.53;98490.69;5154606;27;20412;-55
2021/12/22 01:13:00;;;;;;;4.68;3.28;;;;;;;-18.39;57.94;98485.72;5153246;27;20045;-56
2021/12/22 01:15:27;;;;;;;7.65;2.53;;;;;;;-18.27;57.31;98484.25;5154087;27;20051;-58
2021/12/22 01:18:03;;;;;;;3.60;2.33;;;;;;;-18.14;56.89;98480.22;5154028;27;20039;-56
2021/12/22 01:20:55;;;;;;;5.28;2.83;;;;;;;-17.98;58.23;98482.75;5154101;27;20061;-53
2021/12/22 01:23:16;;;;;;;5.15;3.05;;;;;;;-17.94;56.11;98490.97;5153351;27;20043;-57
2021/12/22 01:25:44;;;;;;;4.30;3.03;;;;;;;-18.09;55.68;98477.44;5154315;27;20095;-55
2021/12/22 01:28:10;;;;;;;2.60;2.22;;;;;;;-18.04;56.38;98484.78;5154424;27;20399;-55
2021/12/22 01:30:42;;;;;;;5.03;3.90;;;;;;;-17.98;55.89;98494.59;5153717;27;20095;-56
2021/12/22 01:33:08;;;;;;;5.18;3.63;;;;;;;-18.05;55.76;98488.22;5154359;27;20043;-54
2021/12/22 01:35:34;;;;;;;5.55;3.97;;;;;;;-18.15;56.35;98487.88;5154194;27;20046;-56
2021/12/22 01:38:01;;;;;;;6.28;2.83;;;;;;;-18.15;56.47;98490.41;5152638;27;20130;-55
2021/12/22 01:40:27;;;;;;;7.88;3.33;;;;;;;-18.23;56.15;98492.50;5154071;27;20114;-55
2021/12/22 01:42:56;;;;;;;6.32;3.65;;;;;;;-18.34;55.29;98501.47;5153992;27;20087;-55
2021/12/22 01:52:01;;;;;;;3.50;2.83;;;;;;;-18.78;56.06;98501.22;5152533;27;20051;-54
2021/12/22 01:54:46;;;;;;;2.03;1.88;;;;;;;-18.83;56.32;98498.09;5148236;27;20047;-55
2021/12/22 01:57:13;;;;;;;5.55;3.15;;;;;;;-18.82;56.68;98489.59;5153738;27;20046;-57
2021/12/22 01:59:42;;;;;;;4.45;2.47;;;;;;;-18.97;57.06;98491.16;5153561;27;20126;-57
2021/12/22 02:02:10;;;;;;;7.07;3.55;;;;;;;-18.95;57.39;98491.91;5153792;27;20039;-55
2021/12/22 02:04:38;;;;;;;4.53;2.83;;;;;;;-18.92;57.55;98486.72;5153035;27;20050;-54
2021/12/22 02:07:05;;;;;;;4.90;2.15;;;;;;;-18.90;57.72;98490.00;5153480;27;20039;-56
2021/12/22 02:12:15;;;;;;;3.78;2.78;;;;;;;-18.78;57.03;98490.28;5153397;27;20049;-58
2021/12/22 02:14:42;;;;;;;4.72;2.58;;;;;;;-18.86;56.41;98491.47;5152271;27;20070;-54
2021/12/22 02:17:10;;;;;;;11.30;3.08;;;;;;;-18.86;56.97;98488.94;5153168;27;20043;-56
2021/12/22 02:19:43;;;;;;;4.20;2.85;;;;;;;-18.83;56.95;98487.97;5153312;27;20442;-54
2021/12/22 02:22:13;;;;;;;5.78;3.30;;;;;;;-18.79;56.90;98492.00;5151553;27;20448;-57
2021/12/22 02:24:40;;;;;;;3.70;2.40;;;;;;;-18.77;56.55;98495.25;5153090;27;20043;-54
2021/12/22 02:27:13;;;;;;;2.85;2.58;;;;;;;-18.68;57.25;98491.41;5151623;27;20083;-56
2021/12/22 02:29:40;;;;;;;6.45;2.78;;;;;;;-18.84;56.19;98486.34;5152557;27;20050;-56
2021/12/22 02:32:14;;;;;;;2.53;1.60;;;;;;;-18.86;56.37;98488.13;5153290;27;20034;-54
2021/12/22 02:34:43;;;;;;;6.20;2.72;;;;;;;-18.86;56.29;98483.06;5151795;27;20099;-55
2021/12/22 02:37:16;;;;;;;2.60;2.38;;;;;;;-19.01;56.03;98484.66;5153213;27;20046;-57
2021/12/22 02:39:58;;;;;;;10.35;2.47;;;;;;;-18.93;57.20;98479.22;5152892;27;20050;-57
2021/12/22 02:42:28;;;;;;;3.20;2.35;;;;;;;-18.81;56.84;98476.09;5151315;27;20073;-57
2021/12/22 02:44:53;;;;;;;1.52;1.45;;;;;;;-18.75;56.84;98473.25;5152705;27;20078;-56
2021/12/22 02:47:21;;;;;;;5.07;2.85;;;;;;;-18.61;57.17;98473.34;5153175;27;20061;-56
2021/12/22 02:49:48;;;;;;;2.95;2.58;;;;;;;-18.67;55.84;98466.09;5151369;27;20043;-55
2021/12/22 02:52:15;;;;;;;3.38;2.15;;;;;;;-18.73;55.39;98475.69;5151758;27;20441;-54
2021/12/22 02:54:52;;;;;;;3.33;2.38;;;;;;;-18.62;56.26;98473.41;5152796;27;20070;-55
2021/12/22 02:57:38;;;;;;;6.03;3.03;;;;;;;-18.60;56.15;98469.91;5153016;27;20046;-57
2021/12/22 03:05:29;;;;;;;3.90;2.33;;;;;;;-18.36;55.46;98482.22;5152546;27;20043;-52
2021/12/22 03:07:55;;;;;;;3.65;2.97;;;;;;;-18.28;54.95;98469.19;5153141;27;20045;-53
2021/12/22 03:10:21;;;;;;;2.88;2.22;;;;;;;-18.21;55.16;98478.06;5151079;27;20462;-57
2021/12/22 03:12:55;;;;;;;3.10;2.40;;;;;;;-18.18;55.23;98468.59;5151336;27;20035;-55
2021/12/22 03:15:21;;;;;;;8.20;1.92;;;;;;;-18.18;55.11;98478.72;5152547;27;20047;-55
2021/12/22 03:17:48;;;;;;;3.35;2.53;;;;;;;-18.18;54.75;98480.44;5151119;27;20039;-54
2021/12/22 03:20:15;;;;;;;3.00;2.35;;;;;;;-18.23;56.58;98478.16;5151494;27;20492;-56
2021/12/22 03:22:43;;;;;;;5.57;2.53;;;;;;;-18.16;54.58;98481.19;5152816;27;20062;-55
2021/12/22 03:25:15;;;;;;;11.32;3.47;;;;;;;-18.17;55.75;98477.84;5151226;27;20091;-57
2021/12/22 03:27:49;;;;;;;3.80;3.03;;;;;;;-18.28;55.18;98470.00;5152169;27;20495;-54
2021/12/22 03:30:18;;;;;;;4.57;3.03;;;;;;;-18.16;56.18;98476.94;5152127;27;20041;-56
2021/12/22 03:32:44;;;;;;;4.75;2.42;;;;;;;-18.11;54.49;98480.06;5152879;27;20034;-57
2021/12/22 03:35:16;;;;;;;3.45;2.05;;;;;;;-17.95;55.34;98484.31;5151357;27;20121;-56
2021/12/22 03:37:43;;;;;;;4.78;2.95;;;;;;;-18.10;53.90;98488.44;5152809;27;20503;-55
2021/12/22 03:40:09;;;;;;;3.03;2.13;;;;;;;-17.99;55.42;98492.97;5151987;27;20062;-55
2021/12/22 03:42:35;;;;;;;7.60;3.78;;;;;;;-17.97;54.66;98493.69;5155855;27;20122;-55
2021/12/22 03:45:00;;;;;;;5.93;3.63;;;;;;;-17.89;54.64;98497.44;5155863;27;20642;-56
2021/12/22 03:47:27;;;;;;;5.60;2.42;;;;;;;-17.95;55.23;98497.75;5156460;27;20039;-57
2021/12/22 03:49:52;;;;;;;5.93;2.75;;;;;;;-17.83;55.88;98493.75;5156046;27;20057;-54
2021/12/22 03:52:18;;;;;;;12.50;7.05;;;;;;;-17.77;54.74;98498.47;5154836;27;20034;-54
2021/12/22 03:54:44;;;;;;;2.22;2.03;;;;;;;-17.81;55.18;98501.28;5154633;27;20050;-57
2021/12/22 03:57:10;;;;;;;2.47;2.22;;;;;;;-17.76;54.03;98499.28;5155101;27;20043;-55
2021/12/22 03:59:36;;;;;;;3.53;2.75;;;;;;;-17.89;54.62;98499.97;5155946;27;20091;-55
2021/12/22 04:02:02;;;;;;;7.05;2.15;;;;;;;-17.82;54.48;98505.53;5154554;27;20361;-53
2021/12/22 04:04:27;;;;;;;3.92;3.50;;;;;;;-17.76;54.46;98507.72;5154046;27;20077;-56
2021/12/22 04:06:53;;;;;;;9.48;3.22;;;;;;;-18.12;53.49;98468.28;5154238;27;20222;-56
2021/12/22 04:09:26;;;;;;;7.68;4.03;;;;;;;-17.82;55.29;98509.75;5154342;27;20091;-57
2021/12/22 04:11:52;;;;;;;8.18;3.40;;;;;;;-17.81;54.62;98506.34;5154246;27;20603;-56
2021/12/22 04:14:18;;;;;;;11.05;4.03;;;;;;;-17.77;55.91;98503.53;5154510;27;20153;-56
2021/12/22 04:16:44;;;;;;;3.25;2.30;;;;;;;-17.77;55.40;98498.47;5153549;27;20407;-54
2021/12/22 04:19:09;;;;;;;5.95;3.05;;;;;;;-17.96;54.58;98497.84;5155114;27;20122;-58
2021/12/22 04:21:35;;;;;;;7.43;3.40;;;;;;;-17.89;54.59;98504.22;5155454;27;20495;-56
2021/12/22 04:24:02;;;;;;;4.53;3.45;;;;;;;-17.94;55.89;98496.88;5155056;27;20047;-58
2021/12/22 04:26:31;;;;;;;7.85;3.85;;;;;;;-17.90;54.60;98505.13;5155460;27;20050;-56
2021/12/22 04:28:56;;;;;;;3.75;2.58;;;;;;;-18.18;54.86;98505.72;5155383;27;20087;-56
2021/12/22 04:31:22;;;;;;;7.38;3.00;;;;;;;-18.21;55.28;98498.31;5155397;27;20051;-56
2021/12/22 04:33:48;;;;;;;7.15;3.30;;;;;;;-18.25;55.14;98502.72;5155774;27;20171;-62
2021/12/22 04:36:14;;;;;;;8.45;3.35;;;;;;;-18.19;55.78;98515.03;5153399;27;20046;-54
2021/12/22 04:38:40;;;;;;;8.68;3.17;;;;;;;-18.16;55.66;98511.53;5155853;27;20558;-60
2021/12/22 04:41:05;;;;;;;6.03;3.92;;;;;;;-18.29;55.57;98495.34;5156190;27;20064;-57
2021/12/22 04:43:31;;;;;;;3.55;3.00;;;;;;;-18.25;56.43;98510.31;5155241;27;20174;-56
2021/12/22 04:45:58;;;;;;;4.93;3.35;;;;;;;-18.23;55.26;98517.78;5155228;27;20039;-51
2021/12/22 04:48:25;;;;;;;7.88;3.78;;;;;;;-18.32;56.36;98511.53;5119433;27;20526;-54
2021/12/22 04:50:51;;;;;;;7.63;3.47;;;;;;;-18.24;56.86;98511.94;5155019;27;20083;-54
2021/12/22 04:53:24;;;;;;;10.30;4.00;;;;;;;-18.27;55.08;98501.97;5154475;27;20046;-56
2021/12/22 04:55:50;;;;;;;11.10;4.28;;;;;;;-18.22;56.73;98504.28;5153684;27;20062;-55
2021/12/22 04:58:16;;;;;;;7.47;4.25;;;;;;;-18.30;55.75;98503.84;5153482;27;20520;-55
2021/12/22 05:00:42;;;;;;;5.43;4.20;;;;;;;-18.36;56.92;98500.72;5152393;27;20508;-55
2021/12/22 05:03:08;;;;;;;7.93;4.03;;;;;;;-18.61;56.23;98502.88;5154640;27;20177;-57
2021/12/22 05:05:34;;;;;;;9.50;3.80;;;;;;;-18.67;57.28;98500.66;5154513;27;20038;-58
2021/12/22 05:08:00;;;;;;;4.20;2.88;;;;;;;-18.65;57.57;98499.66;5154670;27;20038;-59
2021/12/22 05:10:27;;;;;;;6.15;2.72;;;;;;;-18.63;57.63;98510.53;5154025;27;20548;-62
2021/12/22 05:12:53;;;;;;;6.47;4.00;;;;;;;-18.60;57.49;98507.84;5152347;27;20039;-55
2021/12/22 05:15:20;;;;;;;5.82;4.13;;;;;;;-18.60;56.95;98512.91;5154431;27;20034;-58
2021/12/22 05:20:19;;;;;;;5.25;2.80;;;;;;;-18.56;57.62;98508.50;5154182;27;20050;-53
2021/12/22 05:22:45;;;;;;;6.95;3.78;;;;;;;-18.56;56.76;98503.44;5151931;27;20038;-54
2021/12/22 05:25:11;;;;;;;3.92;3.28;;;;;;;-18.65;57.03;98504.72;5149237;27;20186;-56
2021/12/22 05:27:38;;;;;;;2.83;2.20;;;;;;;-18.64;57.34;98500.50;5150352;27;20053;-54
2021/12/22 05:30:06;;;;;;;10.38;3.95;;;;;;;-18.58;57.09;98513.66;5151591;27;20050;-54
2021/12/22 05:32:32;;;;;;;2.80;2.17;;;;;;;-18.56;56.78;98521.97;5152079;27;20530;-56
2021/12/22 05:35:00;;;;;;;6.00;3.83;;;;;;;-18.60;56.71;98523.00;5149681;27;20228;-56
2021/12/22 05:37:26;;;;;;;5.72;3.30;;;;;;;-18.83;56.32;98524.16;5133874;27;20121;-55
2021/12/22 05:39:52;;;;;;;4.18;2.30;;;;;;;-18.83;56.85;98528.41;5151764;27;20316;-56
2021/12/22 05:42:19;;;;;;;6.75;3.13;;;;;;;-18.82;57.98;98528.34;5151561;27;20049;-58
2021/12/22 05:44:45;;;;;;;5.88;3.42;;;;;;;-18.73;56.96;98528.75;5149843;27;20550;-54
2021/12/22 05:47:11;;;;;;;6.13;3.22;;;;;;;-18.74;56.23;98527.16;5150953;27;20504;-56
2021/12/22 05:49:37;;;;;;;3.35;2.53;;;;;;;-18.72;57.25;98528.69;5145217;27;20061;-55
2021/12/22 05:52:03;;;;;;;8.00;3.47;;;;;;;-18.75;55.88;98538.16;5150092;27;20591;-54
2021/12/22 05:54:29;;;;;;;4.25;2.25;;;;;;;-18.82;55.84;98537.63;5148254;27;20066;-58
2021/12/22 05:56:55;;;;;;;4.15;2.85;;;;;;;-18.88;56.90;98522.75;5148989;27;20066;-57
2021/12/22 05:59:21;;;;;;;3.17;2.42;;;;;;;-19.04;56.05;98530.28;5150381;27;20450;-55
2021/12/22 06:01:47;;;;;;;6.80;2.97;;;;;;;-19.01;57.46;98535.16;5147851;27;20047;-56
2021/12/22 06:04:12;;;;;;;7.43;3.38;;;;;;;-18.97;57.62;98525.72;5148259;27;20959;-58
2021/12/22 06:06:38;;;;;;;8.55;3.13;;;;;;;-18.91;57.52;98531.31;5149560;27;20047;-55
2021/12/22 06:09:05;;;;;;;2.92;2.67;;;;;;;-18.86;56.50;98523.50;5148951;27;20480;-55
2021/12/22 06:11:31;;;;;;;3.10;2.78;;;;;;;-18.86;57.03;98526.84;5146440;27;20035;-56
2021/12/22 06:13:57;;;;;;;2.13;1.73;;;;;;;-18.84;56.32;98536.88;5150518;27;20069;-57
2021/12/22 06:16:23;;;;;;;3.95;2.65;;;;;;;-18.88;56.47;98536.22;5148551;27;20034;-55
2021/12/22 06:18:56;;;;;;;6.00;2.40;;;;;;;-18.77;56.51;98537.41;5149885;27;20039;-56
2021/12/22 06:21:24;;;;;;;2.22;2.03;;;;;;;-18.90;55.93;98540.53;5151449;27;20083;-55
2021/12/22 06:23:52;;;;;;;4.53;2.90;;;;;;;-18.90;55.83;98537.19;5116593;27;20050;-54
2021/12/22 06:26:17;;;;;;;6.68;2.58;;;;;;;-18.81;56.61;98532.50;5150267;27;20046;-54
2021/12/22 06:28:43;;;;;;;5.15;2.65;;;;;;;-18.86;56.31;98536.94;5152300;27;20062;-58
2021/12/22 06:31:09;;;;;;;2.35;2.00;;;;;;;-18.80;56.37;98539.19;5150460;27;20046;-54
2021/12/22 06:33:35;;;;;;;7.75;2.90;;;;;;;-18.74;55.61;98545.66;5149864;27;20035;-57
2021/12/22 06:36:01;;;;;;;7.50;4.45;;;;;;;-18.75;54.96;98548.25;5150942;27;20042;-55
2021/12/22 06:38:27;;;;;;;3.38;2.45;;;;;;;-18.78;55.96;98554.28;5151157;27;20039;-55
2021/12/22 06:40:53;;;;;;;7.13;3.45;;;;;;;-18.72;56.30;98545.56;5131344;27;20043;-54
2021/12/22 06:43:18;;;;;;;5.32;2.60;;;;;;;-18.70;55.02;98552.19;5127097;27;20039;-57
2021/12/22 06:45:45;;;;;;;3.63;2.22;;;;;;;-18.65;55.89;98555.28;5149768;27;20412;-56
2021/12/22 06:48:11;;;;;;;3.58;3.15;;;;;;;-18.61;55.65;98543.31;5150787;27;20521;-55
2021/12/22 06:50:37;;;;;;;3.40;2.60;;;;;;;-18.45;55.77;98554.28;5149871;27;20067;-56
2021/12/22 06:53:03;;;;;;;7.13;2.85;;;;;;;-18.41;56.02;98562.53;5149253;27;20083;-57
2021/12/22 06:55:29;;;;;;;7.07;3.17;;;;;;;-18.36;55.80;98560.59;5147626;27;20035;-57
2021/12/22 06:57:55;;;;;;;5.47;2.92;;;;;;;-18.50;54.22;98561.28;5151323;27;20420;-59
2021/12/22 07:00:22;;;;;;;6.22;3.17;;;;;;;-18.48;55.50;98561.22;5150348;27;20041;-58
2021/12/22 07:02:48;;;;;;;3.03;2.05;;;;;;;-18.45;55.05;98563.59;5148506;27;20416;-57
2021/12/22 07:05:17;;;;;;;5.10;3.55;;;;;;;-18.39;55.43;98568.34;5145482;27;20039;-56
2021/12/22 07:07:43;;;;;;;5.85;3.22;;;;;;;-18.61;55.05;98568.59;5147192;27;20095;-56
2021/12/22 07:10:10;;;;;;;10.32;3.58;;;;;;;-18.52;55.26;98567.34;5145481;27;20414;-57
2021/12/22 07:12:41;;;;;;;4.50;2.80;;;;;;;-18.31;56.16;98575.56;5146318;27;20219;-56
2021/12/22 07:15:10;;;;;;;7.07;4.00;;;;;;;-18.18;54.08;98568.97;5143390;27;20142;-56
2021/12/22 07:17:40;;;;;;;6.53;3.00;;;;;;;-18.14;54.59;98565.41;5148776;27;20034;-59
2021/12/22 07:20:06;;;;;;;8.57;4.35;;;;;;;-18.05;54.87;98567.47;5151287;27;20039;-57
2021/12/22 07:22:33;;;;;;;8.38;4.13;;;;;;;-18.04;55.21;98570.81;5154378;27;20335;-56
2021/12/22 07:24:59;;;;;;;6.70;3.28;;;;;;;-17.93;55.26;98573.63;5153780;27;20046;-58
2021/12/22 07:27:24;;;;;;;8.93;4.75;;;;;;;-17.85;55.24;98576.53;5155039;27;20044;-58
2021/12/22 07:29:50;;;;;;;6.45;4.43;;;;;;;-17.76;54.12;98578.59;5149602;27;20034;-59
2021/12/22 07:32:16;;;;;;;7.78;4.13;;;;;;;-17.76;53.16;98577.75;5155392;27;20041;-57
2021/12/22 07:34:57;;;;;;;13.63;4.55;;;;;;;-17.96;53.06;98578.84;5154017;27;20095;-56
2021/12/22 07:37:43;;;;;;;10.38;6.30;;;;;;;-17.99;53.71;98577.28;5153946;27;20058;-56
2021/12/22 07:40:13;;;;;;;14.77;4.88;;;;;;;-18.12;54.11;98581.31;5151778;27;20091;-55
2021/12/22 07:42:39;;;;;;;12.65;6.35;;;;;;;-18.19;54.39;98585.06;5152503;27;20037;-53
2021/12/22 07:45:06;;;;;;;16.48;7.68;;;;;;;-18.17;54.12;98588.34;5152916;27;20064;-54
2021/12/22 07:47:32;;;;;;;10.55;5.40;;;;;;;-18.51;54.44;98582.41;5153217;27;20504;-56
2021/12/22 07:49:58;;;;;;;7.25;4.10;;;;;;;-18.69;55.61;98576.53;5151587;27;20045;-58
2021/12/22 07:52:26;;;;;;;3.72;2.80;;;;;;;-18.87;56.02;98585.06;5155490;27;20281;-59
2021/12/22 07:54:52;;;;;;;8.82;2.90;;;;;;;-18.98;56.70;98574.63;5153270;27;20047;-57
2021/12/22 07:57:18;;;;;;;2.72;2.42;;;;;;;-19.01;56.49;98580.66;5152993;27;20552;-59
2021/12/22 07:59:44;;;;;;;8.80;4.60;;;;;;;-18.87;57.07;98573.22;5151993;27;20042;-60
2021/12/22 08:02:10;;;;;;;8.95;3.85;;;;;;;-18.73;56.60;98576.78;5150403;27;20046;-59
2021/12/22 08:04:36;;;;;;;3.60;2.47;;;;;;;-18.84;56.34;98564.69;5151964;27;20054;-60
2021/12/22 08:07:03;;;;;;;5.85;3.45;;;;;;;-18.99;56.67;98567.97;5151307;27;20051;-56
2021/12/22 08:09:29;;;;;;;8.73;5.20;;;;;;;-18.68;56.21;98573.13;5117540;27;20551;-59
2021/12/22 08:11:56;;;;;;;16.42;4.40;;;;;;;-18.58;56.19;98574.31;5152035;27;20066;-58
2021/12/22 08:14:23;;;;;;;7.50;3.45;;;;;;;-18.66;55.50;98573.88;5149896;27;20080;-59
2021/12/22 08:16:50;;;;;;;5.18;3.25;;;;;;;-18.45;56.63;98581.28;5151545;27;20515;-57
2021/12/22 08:19:16;;;;;;;3.63;2.20;;;;;;;-18.63;55.66;98568.66;5149874;27;20112;-60
2021/12/22 08:21:44;;;;;;;6.57;3.45;;;;;;;-18.42;56.25;98571.84;5151739;27;20034;-57
2021/12/22 08:24:10;;;;;;;6.43;3.35;;;;;;;-18.37;56.01;98562.31;5150626;27;20567;-59
2021/12/22 08:26:37;;;;;;;6.15;3.22;;;;;;;-18.43;55.43;98579.53;5151787;27;20099;-58
2021/12/22 08:29:03;;;;;;;6.28;3.28;;;;;;;-18.40;55.21;98584.41;5151188;27;20050;-56
2021/12/22 08:31:29;;;;;;;7.40;3.83;;;;;;;-18.59;55.84;98589.53;5133287;27;20075;-56
2021/12/22 08:33:55;;;;;;;6.50;4.15;;;;;;;-18.48;55.25;98589.84;5151058;27;20047;-56
2021/12/22 08:39:10;;;;;;;4.97;2.47;;;;;;;-18.61;55.03;98587.09;5151891;27;20454;-57
2021/12/22 08:41:39;;;;;;;11.63;3.70;;;;;;;-18.52;55.46;98590.91;5152237;27;20046;-54
2021/12/22 08:44:10;;;;;;;6.90;3.33;;;;;;;-18.46;55.29;98595.66;5131824;27;20125;-57
2021/12/22 08:46:38;;;;;;;6.63;4.05;;;;;;;-18.42;55.87;98598.84;5152316;27;20045;-57
2021/12/22 08:49:05;;;;;;;8.35;3.92;;;;;;;-18.49;54.71;98595.81;5152328;27;20042;-60
2021/12/22 08:51:32;;;;;;;14.38;5.10;;;;;;;-18.48;55.06;98594.91;5142030;27;20502;-57
2021/12/22 08:54:00;;;;;;;5.72;3.47;;;;;;;-18.31;54.41;98599.13;5152575;27;20105;-60
2021/12/22 08:56:26;;;;;;;7.38;4.57;;;;;;;-18.28;54.88;98593.13;5152864;27;20527;-59
2021/12/22 08:58:54;;;;;;;6.60;3.25;;;;;;;-18.23;54.95;98579.34;5152102;27;20051;-64
2021/12/22 09:01:21;;;;;;;9.27;3.28;;;;;;;-18.21;54.07;98594.44;5151438;27;20046;-60
2021/12/22 09:03:47;;;;;;;5.15;3.28;;;;;;;-18.14;54.38;98593.25;5151373;27;20503;-59
2021/12/22 09:06:14;;;;;;;6.97;3.35;;;;;;;-17.97;55.00;98587.31;5150966;27;20503;-61
2021/12/22 09:08:43;;;;;;;6.50;5.03;;;;;;;-17.77;53.56;98597.19;5152932;27;20050;-59
2021/12/22 09:11:09;;;;;;;5.18;3.30;;;;;;;-17.74;54.40;98591.16;5151489;27;20035;-59
2021/12/22 09:13:36;;;;;;;8.45;3.33;;;;;;;-17.96;54.05;98588.97;5152757;27;20046;-59
2021/12/22 09:16:03;;;;;;;6.95;3.50;;;;;;;-17.97;53.47;98588.13;5149219;27;20062;-58
2021/12/22 09:18:28;;;;;;;14.68;4.57;;;;;;;-17.68;53.80;98594.19;5150435;27;20150;-61
2021/12/22 09:20:54;;;;;;;8.15;3.47;;;;;;;-17.56;53.00;98605.38;5150120;27;20042;-62
2021/12/22 09:23:20;;;;;;;7.20;4.07;;;;;;;-17.60;52.18;98598.03;5130779;27;20051;-60
2021/12/22 09:25:46;;;;;;;6.40;1.88;;;;;;;-17.88;52.39;98591.88;5150379;27;20203;-59
2021/12/22 09:28:14;;;;;;;6.93;4.53;;;;;;;-17.93;53.66;98592.16;5149895;27;20043;-59
2021/12/22 09:30:44;;;;;;;4.75;4.28;;;;;;;-18.01;54.15;98594.25;5150140;27;20204;-60
2021/12/22 09:33:14;;;;;;;7.32;3.25;;;;;;;-18.02;53.64;98592.63;5150010;27;20034;-59
2021/12/22 09:35:40;;;;;;;8.63;4.20;;;;;;;-17.77;53.41;98594.66;5150814;27;20034;-59
2021/12/22 09:38:07;;;;;;;4.57;3.40;;;;;;;-17.82;53.37;98601.72;5149530;27;20129;-57
2021/12/22 09:40:34;;;;;;;11.65;4.70;;;;;;;-17.78;52.90;98587.19;5148269;27;20377;-61
2021/12/22 09:43:00;;;;;;;5.90;3.70;;;;;;;-17.65;54.68;98594.00;5149368;27;20511;-59
2021/12/22 09:45:26;;;;;;;7.45;3.47;;;;;;;-17.43;52.99;98595.44;5130739;27;20050;-60
2021/12/22 09:48:20;;;;;;;6.88;3.15;;;;;;;-17.54;51.79;98598.53;5151592;27;20099;-62
2021/12/22 09:50:55;;;;;;;6.47;3.17;;;;;;;-17.70;51.81;98593.47;5150404;27;20087;-58
2021/12/22 09:53:27;;;;;;;5.60;3.22;;;;;;;-17.57;52.56;98592.81;5149802;27;20087;-58
2021/12/22 09:55:54;;;;;;;2.47;2.28;;;;;;;-17.64;52.71;98595.66;5148054;27;20042;-59
2021/12/22 09:58:20;;;;;;;9.73;3.92;;;;;;;-17.68;52.89;98596.72;5149769;27;20046;-59
2021/12/22 10:00:48;;;;;;;4.50;2.35;;;;;;;-17.65;53.21;98591.47;5147978;27;20141;-59
2021/12/22 10:03:14;;;;;;;4.05;2.45;;;;;;;-17.84;53.21;98603.50;5127777;27;20193;-57
2021/12/22 10:05:42;;;;;;;5.18;3.92;;;;;;;-18.02;52.90;98604.47;5130766;27;20039;-59
2021/12/22 10:08:10;;;;;;;3.75;2.30;;;;;;;-17.82;53.53;98606.78;5149407;27;20066;-57
2021/12/22 10:10:39;;;;;;;5.30;3.67;;;;;;;-17.96;53.15;98601.63;5130180;27;20027;-58
2021/12/22 10:13:16;;;;;;;3.72;2.78;;;;;;;-18.03;52.67;98616.25;5150546;27;20384;-56
2021/12/22 10:15:43;;;;;;;5.78;3.33;;;;;;;-17.93;52.66;98609.03;5149846;27;20038;-55
2021/12/22 10:18:09;;;;;;;6.72;3.53;;;;;;;-17.89;53.91;98608.78;5147269;27;20420;-60
2021/12/22 10:20:36;;;;;;;3.58;3.15;;;;;;;-17.81;54.01;98607.59;5150033;27;20091;-56
2021/12/22 10:23:02;;;;;;;3.95;2.90;;;;;;;-17.92;53.92;98615.72;5150053;27;20524;-60
2021/12/22 10:25:31;;;;;;;3.95;2.97;;;;;;;-17.88;53.84;98623.09;5150224;27;20034;-59
2021/12/22 10:28:04;;;;;;;4.30;3.05;;;;;;;-18.01;53.20;98623.78;5150226;27;20046;-58
2021/12/22 10:30:34;;;;;;;2.35;2.15;;;;;;;-18.14;54.10;98619.34;5149255;27;20529;-58
2021/12/22 10:33:13;;;;;;;5.45;2.63;;;;;;;-18.05;53.53;98617.25;5149047;27;20043;-58
2021/12/22 10:35:40;;;;;;;4.47;3.05;;;;;;;-17.82;53.32;98605.94;5148084;27;20030;-60
2021/12/22 10:38:09;;;;;;;8.82;3.17;;;;;;;-17.86;53.01;98620.47;5147161;27;20457;-60
2021/12/22 10:40:48;;;;;;;2.93;2.67;;;;;;;-18.21;52.62;98620.53;5148740;27;20038;-58
2021/12/22 10:43:29;;;;;;;7.40;3.15;;;;;;;-18.18;52.63;98607.72;5128438;27;20065;-59
2021/12/22 10:46:01;;;;;;;2.45;2.25;;;;;;;-18.37;53.02;98617.16;5121703;27;20664;-59
2021/12/22 10:51:36;;;;;;;2.80;2.55;;;;;;;-18.49;53.52;98628.69;5149842;27;20188;-59
2021/12/22 10:54:08;;;;;;;14.05;3.08;;;;;;;-18.71;53.05;98631.41;5138438;27;20039;-56
2021/12/22 10:56:36;;;;;;;2.75;2.17;;;;;;;-18.61;53.34;98616.63;5155245;27;20133;-60
2021/12/22 10:59:08;;;;;;;3.85;3.40;;;;;;;-18.56;53.77;98629.84;5136528;27;20059;-57
2021/12/22 11:01:39;;;;;;;2.65;1.65;;;;;;;-18.66;53.54;98626.13;5140086;27;20125;-58
2021/12/22 11:04:18;;;;;;;4.65;1.75;;;;;;;-18.85;53.52;98619.47;5138558;27;20051;-57
2021/12/22 11:06:44;;;;;;;7.23;2.60;;;;;;;-19.00;53.16;98619.34;5153520;27;20511;-55
2021/12/22 11:09:15;;;;;;;5.10;2.63;;;;;;;-18.90;53.62;98631.50;5137742;27;20137;-56
2021/12/22 11:11:54;;;;;;;2.10;1.77;;;;;;;-18.93;54.08;98631.63;5157184;27;20045;-60
2021/12/22 11:14:23;;;;;;;2.03;1.83;;;;;;;-19.18;54.39;98628.59;5156930;27;20522;-58
2021/12/22 11:16:50;;;;;;;2.10;1.73;;;;;;;-19.00;54.80;98631.97;5139265;27;20359;-57
2021/12/22 11:19:16;;;;;;;1.40;1.40;;;;;;;-19.05;54.35;98630.50;5158193;27;20050;-58
2021/12/22 11:22:23;;;;;;;4.05;3.05;;;;;;;-18.99;53.69;98636.16;5157079;27;20483;-60
2021/12/22 11:24:51;;;;;;;2.00;1.83;;;;;;;-18.91;54.27;98632.41;5156929;27;20423;-59
2021/12/22 11:27:24;;;;;;;3.05;2.53;;;;;;;-18.98;54.16;98636.06;5156203;27;20039;-58
2021/12/22 11:29:56;;;;;;;2.88;2.45;;;;;;;-18.89;55.43;98630.59;5153161;27;20069;-58
2021/12/22 11:32:25;;;;;;;3.65;3.33;;;;;;;-18.89;55.35;98647.47;5155320;27;20127;-54
2021/12/22 11:34:54;;;;;;;4.20;2.80;;;;;;;-18.75;55.05;98647.66;5155776;27;20587;-58
2021/12/22 11:37:21;;;;;;;4.78;2.90;;;;;;;-18.80;54.55;98659.66;5156376;27;20522;-57
2021/12/22 11:39:48;;;;;;;10.18;3.15;;;;;;;-18.98;54.12;98658.81;5156028;27;20043;-57
2021/12/22 11:42:14;;;;;;;3.40;2.78;;;;;;;-19.23;54.87;98661.66;5157073;27;20034;-61
2021/12/22 11:44:44;;;;;;;3.13;2.63;;;;;;;-19.18;55.29;98664.78;5156487;27;20516;-60
2021/12/22 11:47:11;;;;;;;;;;;;;;;-19.30;55.04;98668.66;5157098;27;20038;-61
2021/12/22 11:50:00;;;;;;;6.47;4.18;;;;;;;-19.15;55.25;98656.25;5155972;27;19935;-60
2021/12/22 11:52:47;;;;;;;;;;;;;;;-19.15;55.56;98658.75;5153997;27;20392;-55